Time;durP1;ratioP1;P1;durP2;ratioP2;P2;SDS_P1;SDS_P2;PMS_P1;PMS_P2;Temp;Humidity;BMP_temperature;BMP_pressure;BME280_temperature;BME280_humidity;BME280_pressure;Samples;Min_cycle;Max_cycle;Signal;HPM_P1;HPM_P2
2021/10/13 00:00:12;;;;;;;3.80;2.10;;;4.00;99.90;;;;;;5014311;28;20167;-83
2021/10/13 00:02:38;;;;;;;4.20;2.50;;;3.90;99.90;;;;;;5013996;28;20174;-82
2021/10/13 00:05:05;;;;;;;3.13;1.57;;;3.90;99.90;;;;;;5013996;28;20414;-83
2021/10/13 00:07:32;;;;;;;2.47;1.50;;;3.80;99.90;;;;;;4996235;28;20922;-83
2021/10/13 00:09:57;;;;;;;2.70;1.90;;;3.80;99.90;;;;;;4996292;28;20933;-83
2021/10/13 00:12:27;;;;;;;4.60;1.77;;;3.80;99.90;;;;;;4996186;28;20604;-83
2021/10/13 00:14:53;;;;;;;3.50;1.83;;;3.80;99.90;;;;;;4996140;28;20187;-83
2021/10/13 00:17:19;;;;;;;3.80;2.03;;;3.70;99.90;;;;;;5013741;28;20410;-83
2021/10/13 00:19:45;;;;;;;5.47;1.87;;;3.70;99.90;;;;;;5013772;28;20422;-83
2021/10/13 00:22:11;;;;;;;4.00;1.57;;;3.70;99.90;;;;;;5013565;28;20294;-83
2021/10/13 00:24:36;;;;;;;3.50;2.43;;;3.60;99.90;;;;;;4995671;28;20825;-83
2021/10/13 00:27:02;;;;;;;3.13;1.63;;;3.60;99.90;;;;;;5013529;28;20178;-82
2021/10/13 00:29:28;;;;;;;5.50;2.13;;;3.60;99.90;;;;;;5013414;28;20169;-83
2021/10/13 00:31:54;;;;;;;6.07;2.37;;;3.60;99.90;;;;;;5013421;28;20198;-83
2021/10/13 00:34:19;;;;;;;3.10;2.13;;;3.50;99.90;;;;;;5013483;28;20417;-83
2021/10/13 00:36:45;;;;;;;3.40;1.70;;;3.50;99.90;;;;;;5013528;28;20555;-83
2021/10/13 00:39:11;;;;;;;3.87;2.57;;;3.50;99.90;;;;;;5013120;28;20173;-83
2021/10/13 00:41:37;;;;;;;5.33;2.23;;;3.80;99.90;;;;;;5013451;28;20197;-83
2021/10/13 00:44:03;;;;;;;5.70;2.93;;;3.50;99.90;;;;;;5013335;28;20167;-83
2021/10/13 00:46:28;;;;;;;5.00;1.83;;;3.50;99.90;;;;;;5012458;28;20512;-83
2021/10/13 00:48:54;;;;;;;3.13;1.67;;;3.40;99.90;;;;;;5013306;28;20433;-84
2021/10/13 00:51:20;;;;;;;3.67;2.30;;;3.40;99.90;;;;;;5013372;28;20205;-83
2021/10/13 00:53:45;;;;;;;4.70;2.10;;;3.30;99.90;;;;;;5012761;28;20210;-83
2021/10/13 00:56:11;;;;;;;5.40;1.63;;;3.20;99.90;;;;;;5013344;28;20523;-83
2021/10/13 00:58:37;;;;;;;5.57;2.40;;;3.20;99.90;;;;;;4995684;28;20627;-83
2021/10/13 01:01:21;;;;;;;5.43;2.20;;;3.30;99.90;;;;;;5013164;28;20178;-82
2021/10/13 01:03:47;;;;;;;6.83;3.40;;;3.30;99.90;;;;;;4995707;28;20623;-83
2021/10/13 01:06:57;;;;;;;4.70;2.23;;;3.40;99.90;;;;;;5013164;28;20433;-83
2021/10/13 01:09:26;;;;;;;5.67;2.17;;;3.50;99.90;;;;;;4995258;28;20179;-83
2021/10/13 01:12:12;;;;;;;13.43;4.70;;;3.50;99.90;;;;;;5013150;28;20414;-83
2021/10/13 01:14:46;;;;;;;10.50;3.63;;;3.40;99.90;;;;;;5013241;28;20892;-83
2021/10/13 01:17:35;;;;;;;8.83;3.83;;;3.40;99.90;;;;;;4995873;28;20955;-84
2021/10/13 01:20:22;;;;;;;9.43;2.90;;;3.50;99.90;;;;;;5013152;28;20422;-83
2021/10/13 01:23:12;;;;;;;8.77;2.80;;;3.50;99.90;;;;;;5012449;28;20449;-83
2021/10/13 01:25:49;;;;;;;4.20;1.83;;;3.40;99.90;;;;;;5012896;28;20508;-84
2021/10/13 01:28:36;;;;;;;9.13;3.40;;;3.50;99.90;;;;;;5013024;28;20414;-83
2021/10/13 01:31:17;;;;;;;10.33;3.33;;;3.50;99.90;;;;;;5012976;28;21010;-83
2021/10/13 01:33:57;;;;;;;8.17;3.57;;;3.40;99.90;;;;;;5012826;28;20527;-84
2021/10/13 01:36:27;;;;;;;5.70;2.80;;;3.50;99.90;;;;;;5013030;28;20416;-84
2021/10/13 01:38:56;;;;;;;10.63;3.50;;;3.40;99.90;;;;;;5012627;28;20972;-83
2021/10/13 01:41:24;;;;;;;6.90;3.07;;;3.40;99.90;;;;;;5013040;28;20491;-83
2021/10/13 01:43:51;;;;;;;10.53;2.37;;;3.50;99.90;;;;;;5013055;28;20426;-84
2021/10/13 01:46:20;;;;;;;8.10;2.80;;;3.50;99.90;;;;;;5012905;28;20413;-84
2021/10/13 01:48:46;;;;;;;7.43;2.77;;;3.40;99.90;;;;;;5012767;28;20447;-84
2021/10/13 01:51:14;;;;;;;10.03;2.80;;;3.40;99.90;;;;;;4995286;28;20478;-83
2021/10/13 01:53:41;;;;;;;7.70;2.60;;;3.40;99.90;;;;;;5012406;28;20202;-83
2021/10/13 01:56:08;;;;;;;6.57;3.10;;;3.40;99.90;;;;;;5012775;28;20414;-83
2021/10/13 01:58:36;;;;;;;6.73;3.80;;;3.40;99.90;;;;;;5015921;28;20776;-84
2021/10/13 02:01:02;;;;;;;4.33;2.40;;;3.40;99.90;;;;;;5016344;28;20416;-84
2021/10/13 02:03:30;;;;;;;5.10;3.27;;;3.40;99.90;;;;;;5016218;28;20422;-84
2021/10/13 02:06:01;;;;;;;6.37;3.60;;;3.40;99.90;;;;;;5016178;28;20469;-84
2021/10/13 02:08:28;;;;;;;11.10;3.60;;;3.30;99.90;;;;;;5015772;28;20501;-83
2021/10/13 02:10:56;;;;;;;5.53;3.77;;;3.30;99.90;;;;;;5016221;28;20425;-83
2021/10/13 02:13:23;;;;;;;9.37;3.80;;;3.20;99.90;;;;;;4998387;28;20474;-84
2021/10/13 02:15:51;;;;;;;5.33;3.50;;;3.30;99.90;;;;;;5015986;28;20402;-83
2021/10/13 02:18:24;;;;;;;5.83;3.07;;;3.30;99.90;;;;;;5015953;28;20663;-83
2021/10/13 02:20:50;;;;;;;7.80;4.43;;;3.40;99.90;;;;;;5015655;28;20489;-82
2021/10/13 02:23:18;;;;;;;7.50;2.90;;;3.40;99.90;;;;;;5015652;28;20413;-83
2021/10/13 02:25:47;;;;;;;16.70;4.77;;;3.40;99.90;;;;;;5015856;28;20402;-83
2021/10/13 02:28:19;;;;;;;6.90;4.17;;;3.30;99.90;;;;;;5015704;28;20415;-83
2021/10/13 02:30:45;;;;;;;9.63;3.70;;;3.30;99.90;;;;;;5015809;28;20736;-82
2021/10/13 02:33:11;;;;;;;14.50;4.10;;;3.30;99.90;;;;;;5015602;28;20614;-83
2021/10/13 02:35:37;;;;;;;8.10;3.53;;;3.30;99.90;;;;;;4998054;28;20508;-83
2021/10/13 02:38:04;;;;;;;7.30;4.13;;;3.30;99.90;;;;;;5015283;28;20258;-83
2021/10/13 02:40:30;;;;;;;10.00;3.13;;;3.40;99.90;;;;;;5015476;28;20414;-83
2021/10/13 02:42:56;;;;;;;10.47;4.60;;;3.30;99.90;;;;;;5015614;28;20461;-83
2021/10/13 02:45:22;;;;;;;8.43;4.00;;;3.20;99.90;;;;;;5015553;28;20418;-83
2021/10/13 02:47:51;;;;;;;7.07;2.97;;;3.10;99.90;;;;;;5015399;28;20167;-83
2021/10/13 02:50:32;;;;;;;6.73;3.40;;;3.20;99.90;;;;;;4997719;28;20243;-84
2021/10/13 02:53:25;;;;;;;4.37;2.80;;;3.10;99.90;;;;;;5014963;28;20469;-84
2021/10/13 02:55:59;;;;;;;9.00;3.53;;;3.20;99.90;;;;;;4997668;28;20445;-84
2021/10/13 02:58:31;;;;;;;7.13;3.63;;;3.20;99.90;;;;;;4997456;28;20901;-84
2021/10/13 03:01:00;;;;;;;8.70;3.10;;;3.00;99.90;;;;;;5014766;28;20418;-84
2021/10/13 03:03:38;;;;;;;7.40;3.43;;;3.10;99.90;;;;;;4997808;28;20503;-86
2021/10/13 03:06:05;;;;;;;6.83;3.63;;;3.20;99.90;;;;;;5015303;28;20749;-83
2021/10/13 03:08:35;;;;;;;5.47;3.33;;;3.00;99.90;;;;;;5013899;28;20525;-85
2021/10/13 03:11:02;;;;;;;6.97;3.37;;;3.00;99.90;;;;;;5015161;28;20413;-85
2021/10/13 03:13:32;;;;;;;6.80;3.20;;;3.00;99.90;;;;;;5014748;28;20461;-84
2021/10/13 03:16:00;;;;;;;7.07;3.33;;;2.90;99.90;;;;;;5013067;28;20402;-83
2021/10/13 03:18:26;;;;;;;11.67;3.73;;;3.00;99.90;;;;;;5013113;28;20414;-83
2021/10/13 03:20:53;;;;;;;6.40;3.07;;;3.00;99.90;;;;;;4995899;28;20825;-83
2021/10/13 03:23:19;;;;;;;11.70;4.30;;;3.00;99.90;;;;;;4996345;28;20174;-83
2021/10/13 03:25:45;;;;;;;5.80;3.47;;;2.90;99.90;;;;;;5014713;28;20411;-83
2021/10/13 03:28:14;;;;;;;7.50;3.83;;;3.00;99.90;;;;;;5014696;28;20418;-83
2021/10/13 03:30:42;;;;;;;4.17;3.37;;;3.10;99.90;;;;;;5014612;28;20747;-83
2021/10/13 03:33:08;;;;;;;9.20;3.80;;;3.20;99.90;;;;;;5014558;28;20556;-83
2021/10/13 03:35:34;;;;;;;11.47;5.43;;;3.40;99.90;;;;;;5014495;28;20970;-84
2021/10/13 03:38:01;;;;;;;13.63;4.13;;;3.50;99.90;;;;;;5014163;28;20172;-83
2021/10/13 03:40:28;;;;;;;16.17;5.63;;;3.60;99.90;;;;;;5014493;28;20174;-83
2021/10/13 03:42:54;;;;;;;11.90;4.53;;;3.50;99.90;;;;;;5014438;28;20437;-83
2021/10/13 03:45:21;;;;;;;10.20;3.20;;;3.40;99.90;;;;;;5014368;28;20906;-83
2021/10/13 03:47:48;;;;;;;9.67;3.87;;;3.20;99.90;;;;;;5014393;28;20199;-83
2021/10/13 03:50:16;;;;;;;6.47;3.10;;;3.20;99.90;;;;;;5014321;28;20410;-83
2021/10/13 03:52:43;;;;;;;9.73;4.13;;;3.30;99.90;;;;;;5013912;28;20519;-81
2021/10/13 03:55:12;;;;;;;8.90;3.30;;;3.20;99.90;;;;;;5014221;28;20812;-83
2021/10/13 03:57:39;;;;;;;7.97;3.10;;;3.20;99.90;;;;;;5014163;28;20980;-82
2021/10/13 04:00:07;;;;;;;8.70;2.93;;;3.10;99.90;;;;;;5014178;28;20834;-81
2021/10/13 04:02:33;;;;;;;8.70;2.80;;;3.20;99.90;;;;;;5014041;28;20465;-82
2021/10/13 04:04:58;;;;;;;9.03;3.60;;;3.10;99.90;;;;;;5014024;28;20402;-84
2021/10/13 04:07:24;;;;;;;6.60;1.83;;;3.00;99.90;;;;;;5013610;28;20171;-83
2021/10/13 04:09:50;;;;;;;12.50;3.00;;;3.10;99.90;;;;;;5014032;28;20178;-82
2021/10/13 04:12:15;;;;;;;13.23;2.77;;;3.10;99.90;;;;;;5013912;28;20182;-82
2021/10/13 04:14:41;;;;;;;8.50;2.80;;;3.20;99.90;;;;;;5013916;28;20171;-82
2021/10/13 04:17:07;;;;;;;5.30;2.53;;;3.10;99.90;;;;;;5013860;28;20224;-82
2021/10/13 04:19:33;;;;;;;12.73;3.47;;;2.90;99.90;;;;;;5013618;28;20426;-82
2021/10/13 04:21:58;;;;;;;7.87;2.87;;;2.80;99.90;;;;;;5012661;28;20576;-82
2021/10/13 04:24:24;;;;;;;16.40;2.97;;;2.90;99.90;;;;;;5013014;28;20639;-82
2021/10/13 04:26:49;;;;;;;7.43;3.03;;;2.80;99.90;;;;;;5012919;28;20533;-84
2021/10/13 04:29:15;;;;;;;8.30;2.87;;;2.70;99.90;;;;;;5012990;28;20182;-81
2021/10/13 04:31:40;;;;;;;3.70;2.27;;;2.80;99.90;;;;;;5013849;28;20177;-83
2021/10/13 04:34:06;;;;;;;4.07;3.20;;;2.80;99.90;;;;;;5012932;28;20221;-84
2021/10/13 04:36:34;;;;;;;4.43;3.03;;;2.90;99.90;;;;;;5012999;28;20210;-83
2021/10/13 04:39:00;;;;;;;6.30;1.93;;;2.80;99.90;;;;;;5012497;28;20184;-83
2021/10/13 04:41:25;;;;;;;8.70;3.03;;;2.80;99.90;;;;;;4995237;28;20444;-84
2021/10/13 04:43:51;;;;;;;12.10;2.23;;;2.80;99.90;;;;;;5012549;28;20179;-84
2021/10/13 04:46:17;;;;;;;10.23;2.80;;;2.80;99.90;;;;;;4995090;28;20210;-83
2021/10/13 04:48:42;;;;;;;9.83;2.70;;;2.90;99.90;;;;;;5012686;28;20178;-83
2021/10/13 04:51:08;;;;;;;13.30;3.20;;;2.80;99.90;;;;;;4995009;28;20266;-83
2021/10/13 04:53:33;;;;;;;12.70;3.47;;;2.80;99.90;;;;;;4994625;28;20219;-83
2021/10/13 04:55:59;;;;;;;10.97;3.00;;;2.90;99.90;;;;;;5012551;28;20175;-83
2021/10/13 04:58:25;;;;;;;14.20;3.43;;;2.90;99.90;;;;;;4994902;28;20182;-85
2021/10/13 05:00:50;;;;;;;13.53;3.30;;;2.90;99.90;;;;;;4994975;28;20538;-82
2021/10/13 05:03:16;;;;;;;9.93;3.03;;;3.00;99.90;;;;;;4994884;28;20179;-83
2021/10/13 05:05:41;;;;;;;19.60;3.37;;;2.90;99.90;;;;;;4994939;28;20201;-83
2021/10/13 05:08:07;;;;;;;9.80;2.73;;;3.00;99.90;;;;;;4994512;28;20183;-84
2021/10/13 05:10:35;;;;;;;6.27;3.27;;;3.10;99.90;;;;;;5012357;28;20194;-83
2021/10/13 05:13:01;;;;;;;17.20;3.50;;;3.00;99.90;;;;;;5012202;28;20471;-82
2021/10/13 05:15:26;;;;;;;2.90;2.63;;;3.00;99.90;;;;;;5012252;28;20786;-84
2021/10/13 05:17:52;;;;;;;8.40;2.93;;;3.00;99.90;;;;;;5012302;28;20600;-82
2021/10/13 05:20:17;;;;;;;6.40;2.90;;;3.10;99.90;;;;;;5012296;28;20733;-83
2021/10/13 05:22:43;;;;;;;7.60;3.00;;;3.10;99.90;;;;;;4955115;28;1159775;-83
2021/10/13 05:25:09;;;;;;;11.00;4.37;;;3.10;99.90;;;;;;5013263;28;20176;-83
2021/10/13 05:27:35;;;;;;;10.87;2.90;;;3.20;99.90;;;;;;5012610;28;20218;-83
2021/10/13 05:30:02;;;;;;;8.33;3.17;;;3.10;99.90;;;;;;5012404;28;20828;-83
2021/10/13 05:32:28;;;;;;;7.80;3.57;;;3.20;99.90;;;;;;5013856;28;20485;-82
2021/10/13 05:34:53;;;;;;;10.90;3.47;;;3.20;99.90;;;;;;4998535;28;20986;-82
2021/10/13 05:37:19;;;;;;;17.20;3.07;;;3.40;99.90;;;;;;4998502;28;20171;-83
2021/10/13 05:39:44;;;;;;;6.87;2.50;;;3.20;99.90;;;;;;5016529;28;20170;-84
2021/10/13 05:42:10;;;;;;;7.00;3.10;;;3.40;99.90;;;;;;4998757;28;20183;-83
2021/10/13 05:44:35;;;;;;;6.80;3.80;;;3.50;99.90;;;;;;5016164;28;20201;-83
2021/10/13 05:47:01;;;;;;;5.70;2.93;;;3.50;99.90;;;;;;5016275;28;20178;-84
2021/10/13 05:49:27;;;;;;;6.13;3.20;;;3.50;99.90;;;;;;5016233;28;20179;-86
2021/10/13 05:51:52;;;;;;;5.97;2.97;;;3.50;99.90;;;;;;5015976;28;20203;-87
2021/10/13 05:54:18;;;;;;;17.50;4.10;;;3.50;99.90;;;;;;5016356;28;20202;-85
2021/10/13 05:56:44;;;;;;;22.93;4.30;;;3.80;99.90;;;;;;5016673;28;20169;-85
2021/10/13 05:59:09;;;;;;;21.40;3.63;;;3.50;99.90;;;;;;4998988;28;20179;-83
2021/10/13 06:01:35;;;;;;;8.63;2.80;;;3.30;99.90;;;;;;5016366;28;20914;-83
2021/10/13 06:04:01;;;;;;;13.27;3.13;;;3.30;99.90;;;;;;5016321;28;20650;-84
2021/10/13 06:06:26;;;;;;;5.77;2.67;;;3.40;99.90;;;;;;5015996;28;20179;-85
2021/10/13 06:08:52;;;;;;;4.63;2.73;;;3.40;99.90;;;;;;5015624;28;20176;-83
2021/10/13 06:11:17;;;;;;;4.53;2.20;;;3.40;99.90;;;;;;4998152;28;20175;-83
2021/10/13 06:13:43;;;;;;;12.60;2.80;;;3.40;99.90;;;;;;5016070;28;20211;-81
2021/10/13 06:16:10;;;;;;;3.70;2.40;;;3.40;99.90;;;;;;4998875;28;20179;-82
2021/10/13 06:18:37;;;;;;;3.47;3.17;;;3.40;99.90;;;;;;5016102;28;20183;-82
2021/10/13 06:21:03;;;;;;;4.60;2.57;;;3.40;99.90;;;;;;5010375;28;20963;-81
2021/10/13 06:23:28;;;;;;;2.73;2.53;;;3.10;99.90;;;;;;4996043;28;20477;-80
2021/10/13 06:25:54;;;;;;;3.90;2.17;;;3.20;99.90;;;;;;4996621;28;20226;-90
2021/10/13 06:28:29;;;;;;;4.50;2.43;;;3.30;99.90;;;;;;4996468;28;20175;-80
2021/10/13 06:30:54;;;;;;;3.80;3.50;;;3.50;99.90;;;;;;4996150;28;20599;-80
2021/10/13 06:33:20;;;;;;;3.50;3.20;;;3.60;99.90;;;;;;4996054;28;20474;-85
2021/10/13 06:35:48;;;;;;;6.70;4.70;;;3.60;99.90;;;;;;4996859;28;20203;-80
2021/10/13 06:38:17;;;;;;;6.20;4.10;;;3.70;99.90;;;;;;4978203;28;20175;-80
2021/10/13 06:40:45;;;;;;;4.83;3.63;;;3.80;99.90;;;;;;4995970;28;20404;-83
2021/10/13 06:43:11;;;;;;;5.97;5.13;;;3.90;99.90;;;;;;4994986;28;20422;-80
2021/10/13 06:45:38;;;;;;;6.07;5.47;;;4.10;99.90;;;;;;4995549;28;20424;-82
2021/10/13 06:48:05;;;;;;;2.87;2.00;;;4.10;99.90;;;;;;4978384;28;20433;-81
2021/10/13 06:50:31;;;;;;;4.27;2.60;;;;;;;;;;4995840;28;20875;-84
2021/10/13 06:52:57;;;;;;;3.47;2.50;;;5.10;99.90;;;;;;4995468;28;20973;-83
2021/10/13 06:55:22;;;;;;;4.93;3.60;;;5.20;99.90;;;;;;4978598;28;20419;-86
2021/10/13 06:57:48;;;;;;;5.00;4.03;;;6.50;99.90;;;;;;4994747;28;20187;-85
2021/10/13 07:00:14;;;;;;;4.77;3.60;;;6.10;99.90;;;;;;4996684;28;20203;-85
2021/10/13 07:02:40;;;;;;;2.47;2.00;;;5.40;99.90;;;;;;4978298;28;20183;-84
2021/10/13 07:05:06;;;;;;;1.60;1.43;;;5.20;99.90;;;;;;4994042;28;20419;-86
2021/10/13 07:07:31;;;;;;;2.10;1.33;;;5.10;99.90;;;;;;4993818;28;20872;-86
2021/10/13 07:09:57;;;;;;;2.30;1.47;;;5.00;99.90;;;;;;4994228;28;20575;-85
2021/10/13 07:12:23;;;;;;;2.20;1.50;;;5.80;99.90;;;;;;4976756;28;20176;-85
2021/10/13 07:14:51;;;;;;;1.90;1.00;;;5.50;99.90;;;;;;4994278;28;20259;-84
2021/10/13 07:17:17;;;;;;;1.43;0.83;;;5.50;99.90;;;;;;4994132;28;20169;-86
2021/10/13 07:19:42;;;;;;;2.00;0.97;;;6.20;99.90;;;;;;4979779;28;20483;-84
2021/10/13 07:22:08;;;;;;;3.13;1.30;;;6.60;99.90;;;;;;4974753;28;20237;-84
2021/10/13 07:24:34;;;;;;;1.53;1.27;;;7.50;99.90;;;;;;4975217;28;20171;-84
2021/10/13 07:26:59;;;;;;;3.17;1.87;;;7.20;99.90;;;;;;4975022;28;20175;-85
2021/10/13 07:29:27;;;;;;;1.67;1.27;;;6.70;99.90;;;;;;4974966;28;20212;-84
2021/10/13 07:31:53;;;;;;;3.10;0.97;;;8.00;99.90;;;;;;4974899;28;20241;-83
2021/10/13 07:34:18;;;;;;;2.07;1.30;;;8.10;99.90;;;;;;4974850;28;20475;-83
2021/10/13 07:36:44;;;;;;;2.70;1.40;;;9.00;99.90;;;;;;4974625;28;20417;-83
2021/10/13 07:39:09;;;;;;;1.70;0.73;;;9.70;99.90;;;;;;4968066;28;20176;-85
2021/10/13 07:41:35;;;;;;;1.70;0.90;;;11.10;99.90;;;;;;4994270;28;20176;-84
2021/10/13 07:44:01;;;;;;;1.87;1.33;;;10.00;99.90;;;;;;4994672;28;20181;-84
2021/10/13 07:46:26;;;;;;;1.90;1.53;;;8.40;99.90;;;;;;4976662;28;20263;-84
2021/10/13 07:48:52;;;;;;;2.50;1.70;;;8.90;99.90;;;;;;4994151;28;20194;-83
2021/10/13 07:51:19;;;;;;;2.10;1.00;;;9.10;99.90;;;;;;4993585;28;20225;-83
2021/10/13 07:53:47;;;;;;;3.50;1.73;;;8.60;99.90;;;;;;4993881;28;21030;-83
2021/10/13 07:56:16;;;;;;;2.00;0.80;;;9.70;99.90;;;;;;4993593;28;20774;-86
2021/10/13 07:58:41;;;;;;;2.37;1.93;;;9.50;99.90;;;;;;4993976;28;20422;-82
2021/10/13 08:01:07;;;;;;;4.20;0.97;;;9.00;99.90;;;;;;4993635;28;20419;-83
2021/10/13 08:03:32;;;;;;;1.90;1.60;;;8.90;99.90;;;;;;4994037;28;20191;-83
2021/10/13 08:05:58;;;;;;;2.77;1.50;;;10.20;99.90;;;;;;4993931;28;20536;-86
2021/10/13 08:08:23;;;;;;;2.53;1.60;;;12.70;99.90;;;;;;4993378;28;20181;-85
2021/10/13 08:10:49;;;;;;;1.80;1.27;;;14.10;99.90;;;;;;4976363;28;20187;-85
2021/10/13 08:13:15;;;;;;;1.43;1.00;;;11.80;99.90;;;;;;4993720;28;20210;-88
2021/10/13 08:15:40;;;;;;;2.70;1.40;;;9.60;99.90;;;;;;4976403;28;20267;-84
2021/10/13 08:18:06;;;;;;;1.73;1.33;;;8.50;99.90;;;;;;4976646;28;20180;-87
2021/10/13 08:20:31;;;;;;;4.83;1.37;;;8.20;99.90;;;;;;4994623;28;20179;-85
2021/10/13 08:23:00;;;;;;;2.60;2.10;;;8.00;99.90;;;;;;5012948;28;20181;-86
2021/10/13 08:25:28;;;;;;;5.47;1.73;;;7.90;99.90;;;;;;5013134;28;20224;-85
2021/10/13 08:27:54;;;;;;;2.40;1.13;;;11.90;99.90;;;;;;5012977;28;20816;-87
2021/10/13 08:30:19;;;;;;;1.60;0.93;;;13.70;99.90;;;;;;4995399;28;20432;-88
2021/10/13 08:32:45;;;;;;;3.50;1.77;;;11.60;99.90;;;;;;4995531;28;20211;-87
2021/10/13 08:35:11;;;;;;;2.43;1.77;;;11.60;99.90;;;;;;4995594;28;20175;-85
2021/10/13 08:37:37;;;;;;;3.43;2.60;;;12.50;99.90;;;;;;4995755;28;20171;-85
2021/10/13 08:40:04;;;;;;;3.20;1.47;;;14.40;99.90;;;;;;4996032;28;20190;-86
2021/10/13 08:42:30;;;;;;;5.10;2.63;;;16.00;99.90;;;;;;5013637;28;20412;-84
2021/10/13 08:44:56;;;;;;;3.33;2.20;;;17.00;99.90;;;;;;5013580;28;20477;-86
2021/10/13 08:47:22;;;;;;;2.00;1.73;;;15.70;99.90;;;;;;5013513;28;20667;-83
2021/10/13 08:49:48;;;;;;;5.23;2.67;;;15.40;99.90;;;;;;5013402;28;20508;-83
2021/10/13 08:52:15;;;;;;;1.53;1.37;;;17.00;99.90;;;;;;5012828;28;20428;-83
2021/10/13 08:54:41;;;;;;;2.40;1.50;;;18.30;99.30;;;;;;5013226;28;20205;-83
2021/10/13 08:57:16;;;;;;;3.93;1.50;;;18.70;99.60;;;;;;5013087;28;20418;-84
2021/10/13 08:59:44;;;;;;;4.83;2.10;;;17.90;97.40;;;;;;5013178;28;20890;-83
2021/10/13 09:02:11;;;;;;;4.57;2.97;;;17.80;97.90;;;;;;5013544;28;20407;-84
2021/10/13 09:04:37;;;;;;;2.10;1.53;;;18.80;97.70;;;;;;5014284;28;20494;-85
2021/10/13 09:07:06;;;;;;;3.57;2.20;;;18.50;97.90;;;;;;5014727;28;20421;-90
2021/10/13 09:09:32;;;;;;;3.60;2.00;;;18.90;97.10;;;;;;5017938;28;20177;-84
2021/10/13 09:11:58;;;;;;;2.27;1.30;;;17.80;99.90;;;;;;5000383;28;20420;-88
2021/10/13 09:14:29;;;;;;;2.23;1.63;;;15.50;99.90;;;;;;5018058;28;20470;-85
2021/10/13 09:17:02;;;;;;;3.50;2.10;;;14.40;99.90;;;;;;5017834;28;20912;-84
2021/10/13 09:19:34;;;;;;;2.50;1.50;;;14.00;99.90;;;;;;4999743;28;20467;-84
2021/10/13 09:22:08;;;;;;;3.90;2.13;;;13.50;99.90;;;;;;5016989;28;20978;-83
2021/10/13 09:24:41;;;;;;;2.80;1.80;;;13.30;99.90;;;;;;5017430;28;20465;-83
2021/10/13 09:27:20;;;;;;;3.70;1.70;;;13.70;99.90;;;;;;4999672;28;20948;-83
2021/10/13 09:29:47;;;;;;;2.37;1.47;;;14.10;99.90;;;;;;5017028;28;20914;-84
2021/10/13 09:32:12;;;;;;;3.53;1.10;;;13.60;99.90;;;;;;5016765;28;20408;-83
2021/10/13 09:34:50;;;;;;;3.10;1.77;;;13.70;99.90;;;;;;5017140;28;20436;-83
2021/10/13 09:37:16;;;;;;;3.37;1.43;;;13.30;99.90;;;;;;5016521;28;20273;-87
2021/10/13 09:39:58;;;;;;;3.73;1.60;;;12.90;99.90;;;;;;5016971;28;20415;-83
2021/10/13 09:42:24;;;;;;;3.97;1.57;;;12.80;99.90;;;;;;5016901;28;20925;-87
2021/10/13 09:44:55;;;;;;;3.37;1.30;;;12.70;99.90;;;;;;5014176;28;20423;-87
2021/10/13 09:47:29;;;;;;;3.03;1.10;;;12.40;99.90;;;;;;4997246;28;20951;-87
2021/10/13 09:49:55;;;;;;;2.00;1.47;;;12.50;99.90;;;;;;5015415;28;20416;-86
2021/10/13 09:52:30;;;;;;;2.73;1.07;;;12.80;99.90;;;;;;4997346;28;20519;-86
2021/10/13 09:55:01;;;;;;;3.20;1.33;;;12.70;99.90;;;;;;5015557;28;20185;-87
2021/10/13 09:57:32;;;;;;;4.43;1.70;;;12.80;99.90;;;;;;5015307;28;20865;-87
2021/10/13 09:59:59;;;;;;;1.73;0.93;;;13.00;99.90;;;;;;5015414;28;20420;-85
2021/10/13 10:02:30;;;;;;;2.00;1.03;;;13.10;99.90;;;;;;5015111;28;20406;-86
2021/10/13 10:04:58;;;;;;;2.20;1.50;;;13.00;99.90;;;;;;4997677;28;20454;-85
2021/10/13 10:07:24;;;;;;;2.63;1.17;;;13.60;99.90;;;;;;5014837;28;20407;-87
2021/10/13 10:10:20;;;;;;;2.27;0.77;;;14.60;99.90;;;;;;4997574;28;20947;-86
2021/10/13 10:13:10;;;;;;;2.20;0.97;;;15.50;99.90;;;;;;5002293;28;20720;-87
2021/10/13 10:15:40;;;;;;;2.50;0.70;;;15.40;99.90;;;;;;5015192;28;20508;-87
2021/10/13 10:18:27;;;;;;;2.27;1.07;;;15.30;99.90;;;;;;5009662;28;20450;-85
2021/10/13 10:20:56;;;;;;;3.13;0.73;;;16.50;99.90;;;;;;5010991;28;20465;-86
2021/10/13 10:23:26;;;;;;;3.30;0.30;;;16.10;99.90;;;;;;4996057;28;20776;-84
2021/10/13 10:25:54;;;;;;;4.10;0.50;;;15.50;99.90;;;;;;4996008;28;20848;-84
2021/10/13 10:28:50;;;;;;;3.30;0.20;;;15.10;99.90;;;;;;4995063;28;20436;-84
2021/10/13 10:31:28;;;;;;;0.83;0.27;;;14.40;99.90;;;;;;4994895;28;20837;-83
2021/10/13 10:34:02;;;;;;;1.80;0.40;;;14.10;99.90;;;;;;4994250;28;21053;-85
2021/10/13 10:36:48;;;;;;;2.83;0.30;;;14.10;99.90;;;;;;4994919;28;20467;-85
2021/10/13 10:39:15;;;;;;;0.70;0.30;;;14.10;99.90;;;;;;4977433;28;20430;-84
2021/10/13 10:41:46;;;;;;;4.20;0.50;;;14.40;99.90;;;;;;4978080;28;20429;-83
2021/10/13 10:44:44;;;;;;;2.70;0.60;;;14.70;99.90;;;;;;4995569;28;20410;-82
2021/10/13 10:47:15;;;;;;;2.00;0.40;;;14.90;99.90;;;;;;4995455;28;20418;-86
2021/10/13 10:49:46;;;;;;;2.07;0.53;;;13.90;99.90;;;;;;4995399;28;20503;-84
2021/10/13 10:52:20;;;;;;;2.70;0.50;;;13.60;99.90;;;;;;4977327;28;20409;-83
2021/10/13 10:54:58;;;;;;;2.63;0.90;;;13.50;99.90;;;;;;4995221;28;20447;-83
2021/10/13 10:57:37;;;;;;;4.20;0.67;;;13.20;99.90;;;;;;4995180;28;20896;-83
2021/10/13 11:00:09;;;;;;;2.37;0.80;;;13.00;99.90;;;;;;4995273;28;20500;-83
2021/10/13 11:02:38;;;;;;;2.73;1.00;;;13.00;99.90;;;;;;4994991;28;20748;-83
2021/10/13 11:05:12;;;;;;;3.70;0.40;;;13.00;99.90;;;;;;4995091;28;20900;-83
2021/10/13 11:07:39;;;;;;;3.20;1.03;;;13.10;99.90;;;;;;4995033;28;20406;-83
2021/10/13 11:10:13;;;;;;;2.50;1.00;;;11.70;99.90;;;;;;4995188;28;20422;-83
2021/10/13 11:12:51;;;;;;;5.73;1.03;;;13.10;99.90;;;;;;4994767;28;20464;-84
2021/10/13 11:15:18;;;;;;;2.77;1.00;;;13.00;99.90;;;;;;4994851;28;20420;-83
2021/10/13 11:17:44;;;;;;;4.80;1.17;;;12.80;99.90;;;;;;4994683;28;20438;-84
2021/10/13 11:20:12;;;;;;;6.70;2.37;;;12.90;99.90;;;;;;4994477;28;20465;-82
2021/10/13 11:22:38;;;;;;;3.23;1.33;;;13.00;99.90;;;;;;4993964;28;20266;-83
2021/10/13 11:25:16;;;;;;;1.33;1.23;;;13.20;99.90;;;;;;4994331;28;20443;-83
2021/10/13 11:27:42;;;;;;;3.00;0.77;;;13.30;99.90;;;;;;4994090;28;20177;-82
2021/10/13 11:30:18;;;;;;;3.00;0.90;;;13.50;99.90;;;;;;4993639;28;20649;-82
2021/10/13 11:32:44;;;;;;;2.40;1.37;;;13.80;99.90;;;;;;4994245;28;20623;-83
2021/10/13 11:35:10;;;;;;;1.63;0.90;;;13.70;99.90;;;;;;4994206;28;20554;-82
2021/10/13 11:37:35;;;;;;;3.30;1.30;;;13.60;99.90;;;;;;4993795;28;20181;-82
2021/10/13 11:40:02;;;;;;;5.67;1.17;;;13.60;99.90;;;;;;4994166;28;20179;-83
2021/10/13 11:42:28;;;;;;;4.07;1.57;;;13.50;99.90;;;;;;4993967;28;20218;-83
2021/10/13 11:44:57;;;;;;;3.20;1.10;;;13.70;99.90;;;;;;4993995;28;20424;-82
2021/10/13 11:47:35;;;;;;;2.60;1.53;;;14.00;99.90;;;;;;4993975;28;20265;-82
2021/10/13 11:50:03;;;;;;;9.90;1.50;;;14.10;99.90;;;;;;4993707;28;20921;-83
2021/10/13 11:52:29;;;;;;;5.03;1.30;;;14.00;99.90;;;;;;4993361;28;20432;-83
2021/10/13 11:55:05;;;;;;;3.63;1.30;;;13.90;99.90;;;;;;4976325;28;20437;-82
2021/10/13 11:57:31;;;;;;;3.50;1.03;;;13.80;99.90;;;;;;4993806;28;20409;-83
2021/10/13 12:00:15;;;;;;;4.20;1.00;;;13.90;99.90;;;;;;4993720;28;20504;-83
2021/10/13 12:02:54;;;;;;;1.60;1.17;;;14.20;99.90;;;;;;4993661;28;20175;-83
2021/10/13 12:05:30;;;;;;;1.80;1.27;;;14.40;99.90;;;;;;4993617;28;20440;-84
2021/10/13 12:08:07;;;;;;;5.23;0.90;;;14.50;99.90;;;;;;4993422;28;20478;-82
2021/10/13 12:10:44;;;;;;;2.47;0.93;;;14.60;99.90;;;;;;4993687;28;20431;-83
2021/10/13 12:13:16;;;;;;;1.93;1.23;;;14.70;99.90;;;;;;4976173;28;21020;-83
2021/10/13 12:15:45;;;;;;;3.17;1.63;;;15.80;99.90;;;;;;4993515;28;20409;-83
2021/10/13 12:18:22;;;;;;;2.87;1.10;;;16.10;99.90;;;;;;4993423;28;20447;-82
2021/10/13 12:20:53;;;;;;;3.10;0.90;;;15.10;99.90;;;;;;4996216;28;20472;-83
2021/10/13 12:23:21;;;;;;;2.20;1.03;;;14.50;99.90;;;;;;5013159;28;20425;-83
2021/10/13 12:25:47;;;;;;;3.27;0.87;;;14.40;99.90;;;;;;4995362;28;20921;-83
2021/10/13 12:28:27;;;;;;;3.80;0.83;;;14.30;99.90;;;;;;5012840;28;20498;-83
2021/10/13 12:31:13;;;;;;;3.40;1.10;;;14.30;99.90;;;;;;5012828;28;20410;-82
2021/10/13 12:33:45;;;;;;;3.43;1.07;;;14.10;99.90;;;;;;5012656;28;20530;-82
2021/10/13 12:36:36;;;;;;;6.20;1.33;;;14.00;99.90;;;;;;5012387;28;20414;-83
2021/10/13 12:39:10;;;;;;;3.10;0.77;;;13.80;99.90;;;;;;5012629;28;20787;-83
2021/10/13 12:41:39;;;;;;;5.90;0.50;;;13.90;99.90;;;;;;5012504;28;20428;-83
2021/10/13 12:44:14;;;;;;;4.73;0.40;;;14.20;99.90;;;;;;5012487;28;20435;-83
2021/10/13 12:46:40;;;;;;;4.00;0.47;;;14.40;99.90;;;;;;5012551;28;20409;-83
2021/10/13 12:49:16;;;;;;;1.80;0.60;;;14.50;99.90;;;;;;5012635;28;20488;-82
2021/10/13 12:51:53;;;;;;;1.73;0.50;;;14.20;99.90;;;;;;5012321;28;20466;-83
2021/10/13 12:54:19;;;;;;;4.20;0.60;;;14.10;99.90;;;;;;5012350;28;20988;-83
2021/10/13 12:56:45;;;;;;;6.63;0.77;;;14.10;99.90;;;;;;5012250;28;20504;-82
2021/10/13 12:59:10;;;;;;;6.43;1.40;;;14.00;99.90;;;;;;5012361;28;20560;-83
2021/10/13 13:01:36;;;;;;;3.50;0.50;;;13.70;99.90;;;;;;5012242;28;20190;-82